Buies Creek, NC

7:36 PM EDT on August 28, 2016 (GMT -0400)
Harnett County

Weather History for KHRJ - April, 2014

Change the Weather History Date:

Thursday, April 17, 2014

  Actual Average Record
Temperature  
Mean Temperature 50 °F -  
Max Temperature 66 °F 72 °F 98 °F (2002)
Min Temperature 34 °F 47 °F 32 °F (1980)
Degree Days  
Heating Degree Days 15    
Moisture  
Dew Point 35 °F    
Average Humidity 58    
Maximum Humidity 86    
Minimum Humidity 32    
Precipitation  
Precipitation 0.00 in - - ()
Sea Level Pressure  
Sea Level Pressure 30.48 in    
Wind  
Wind Speed 6 mph (NE)    
Max Wind Speed 12 mph    
Max Gust Speed 23 mph    
Visibility 10 miles    
Events      
Averages and records for this station are not official NWS values.
T = Trace of Precipitation, MM = Missing Value Source: NWS Daily Summary

Daily Weather History Graph

Daily Weather History Graph

Search for Another Location

Airport or City:

Trip Planner

Search our weather history database for the weather conditions in past years. The results will help you decide how hot, cold, wet, or windy it might be!

Date:

Astronomy

Apr. 17, 2014 Rise Set
Actual Time 6:39 AM EDT 7:49 PM EDT
Civil Twilight 6:13 AM EDT 8:15 PM EDT
Nautical Twilight 5:42 AM EDT 8:47 PM EDT
Astronomical Twilight 5:09 AM EDT 9:19 PM EDT
Moon 10:29 PM EDT (4/17) 8:14 AM EDT (4/17)
Length of Visible Light 14h 02m
Length of Day
13h 09m
Waning Gibbous, 94% of the Moon is Illuminated
Apr 17
Waning Gibbous
Apr 22
Last Quarter
Apr 29
New
May 6
First Quarter
May 14
Full

Hourly Weather History & Observations

Time (EDT) Temp. Windchill Dew Point Humidity Pressure Visibility Wind Dir Wind Speed Gust Speed Precip Events Conditions
12:15 AM 43.7 °F 39.7 °F 30.9 °F 61% 30.46 in 10.0 mi ENE 6.9 mph - N/A   Clear
12:35 AM 43.3 °F 40.7 °F 30.7 °F 61% 30.47 in 10.0 mi East 4.6 mph - N/A   Clear
12:55 AM 42.6 °F 39.9 °F 31.1 °F 64% 30.47 in 10.0 mi NE 4.6 mph - N/A   Clear
1:15 AM 41.5 °F 39.6 °F 31.6 °F 68% 30.48 in 10.0 mi NNE 3.5 mph - N/A   Clear
1:35 AM 40.6 °F 38.6 °F 31.6 °F 70% 30.47 in 10.0 mi NNE 3.5 mph - N/A   Clear
1:55 AM 39.9 °F 36.7 °F 31.1 °F 71% 30.47 in 10.0 mi NE 4.6 mph - N/A   Clear
2:15 AM 39.4 °F 37.2 °F 31.1 °F 72% 30.47 in 10.0 mi NNE 3.5 mph - N/A   Clear
2:35 AM 38.8 °F 35.4 °F 31.1 °F 74% 30.47 in 10.0 mi NE 4.6 mph - N/A   Clear
2:55 AM 38.3 °F 35.9 °F 31.3 °F 76% 30.47 in 10.0 mi North 3.5 mph - N/A   Clear
3:15 AM 37.9 °F - 31.5 °F 77% 30.47 in 10.0 mi Calm Calm - N/A   Clear
3:35 AM 37.4 °F 34.9 °F 31.1 °F 78% 30.47 in 10.0 mi North 3.5 mph - N/A   Clear
3:55 AM 36.7 °F 32.9 °F 31.1 °F 80% 30.47 in 10.0 mi North 4.6 mph - N/A   Clear
4:15 AM 36.9 °F 34.3 °F 30.9 °F 79% 30.47 in 10.0 mi North 3.5 mph - N/A   Clear
4:35 AM 36.5 °F 33.9 °F 30.9 °F 80% 30.48 in 10.0 mi North 3.5 mph - N/A   Clear
4:55 AM 36.0 °F - 30.6 °F 81% 30.48 in 10.0 mi Calm Calm - N/A   Clear
5:15 AM 35.1 °F - 30.4 °F 83% 30.49 in 10.0 mi Calm Calm - N/A   Clear
5:35 AM 34.5 °F - 30.7 °F 86% 30.49 in 10.0 mi Calm Calm - N/A   Clear
5:55 AM 34.2 °F - 30.2 °F 85% 30.49 in 10.0 mi Calm Calm - N/A   Clear
6:15 AM 34.3 °F 30.2 °F 30.2 °F 85% 30.49 in 10.0 mi North 4.6 mph - N/A   Clear
6:35 AM 35.1 °F 31.0 °F 30.0 °F 82% 30.49 in 10.0 mi North 4.6 mph - N/A   Clear
6:55 AM 36.3 °F 31.6 °F 29.8 °F 77% 30.50 in 10.0 mi North 5.8 mph - N/A   Clear
7:15 AM 37.0 °F 31.6 °F 30.2 °F 76% 30.50 in 10.0 mi North 6.9 mph - N/A   Clear
7:35 AM 38.7 °F 33.6 °F 30.4 °F 72% 30.51 in 10.0 mi NNE 6.9 mph - N/A   Clear
7:55 AM 40.1 °F 33.6 °F 30.9 °F 70% 30.51 in 10.0 mi NNE 10.4 mph 16.1 mph N/A   Clear
8:15 AM 41.2 °F 37.3 °F 31.3 °F 68% 30.52 in 10.0 mi NNE 5.8 mph - N/A   Clear
8:35 AM 42.3 °F 39.4 °F 31.8 °F 67% 30.53 in 10.0 mi NNE 4.6 mph - N/A   Clear
8:55 AM 43.3 °F 38.1 °F 32.0 °F 64% 30.53 in 10.0 mi NNE 9.2 mph - N/A   Clear
9:15 AM 45.3 °F 39.7 °F 31.8 °F 59% 30.53 in 10.0 mi NE 11.5 mph 23.0 mph N/A   Clear
9:35 AM 46.4 °F 41.9 °F 32.0 °F 57% 30.53 in 10.0 mi NE 9.2 mph 18.4 mph N/A   Clear
9:55 AM 48.0 °F - 32.7 °F 55% 30.53 in 10.0 mi NE 9.2 mph - N/A   Clear
10:15 AM 50.2 °F - 32.0 °F 50% 30.54 in 10.0 mi NE 8.1 mph 17.3 mph N/A   Clear
10:35 AM 51.3 °F - 33.6 °F 51% 30.54 in 10.0 mi NNE 6.9 mph - N/A   Clear
10:55 AM 51.3 °F - 33.3 °F 50% 30.54 in 10.0 mi North 8.1 mph - N/A   Clear
11:15 AM 53.1 °F - 33.3 °F 47% 30.54 in 10.0 mi North 5.8 mph - N/A   Clear
11:35 AM 54.1 °F - 34.5 °F 48% 30.54 in 10.0 mi NNE 4.6 mph - N/A   Clear
11:55 AM 55.0 °F - 35.4 °F 48% 30.54 in 10.0 mi NNE 8.1 mph - N/A   Clear
12:15 PM 56.1 °F - 36.1 °F 47% 30.53 in 10.0 mi NNE 5.8 mph - N/A   Clear
12:35 PM 57.0 °F - 36.3 °F 46% 30.52 in 10.0 mi North 6.9 mph - N/A   Clear
12:55 PM 57.7 °F - 36.3 °F 45% 30.52 in 10.0 mi NE 8.1 mph - N/A   Clear
1:15 PM 58.8 °F - 37.4 °F 45% 30.51 in 10.0 mi North 9.2 mph - N/A   Clear
1:35 PM 60.4 °F - 36.9 °F 42% 30.50 in 10.0 mi NE 9.2 mph - N/A   Clear
1:55 PM 61.3 °F - 37.0 °F 40% 30.49 in 10.0 mi NNE 6.9 mph - N/A   Clear
2:15 PM 62.4 °F - 38.5 °F 41% 30.49 in 10.0 mi NE 6.9 mph - N/A   Clear
2:35 PM 63.5 °F - 37.9 °F 39% 30.48 in 10.0 mi NE 10.4 mph - N/A   Clear
2:55 PM 64.4 °F - 37.2 °F 37% 30.48 in 10.0 mi ENE 6.9 mph - N/A   Clear
3:15 PM 65.5 °F - 37.2 °F 35% 30.47 in 10.0 mi NNE 5.8 mph - N/A   Clear
3:35 PM 63.9 °F - 38.1 °F 39% 30.46 in 10.0 mi NE 8.1 mph - N/A   Clear
3:55 PM 64.6 °F - 37.0 °F 36% 30.45 in 10.0 mi ESE 8.1 mph - N/A   Clear
4:15 PM 66.0 °F - 37.2 °F 35% 30.45 in 10.0 mi ENE 11.5 mph - N/A   Clear
4:35 PM 65.8 °F - 37.4 °F 35% 30.44 in 10.0 mi East 8.1 mph - N/A   Clear
4:55 PM 66.0 °F - 35.4 °F 32% 30.44 in 10.0 mi NE 6.9 mph - N/A   Clear
5:15 PM 65.3 °F - 35.6 °F 33% 30.44 in 10.0 mi East 9.2 mph - N/A   Clear
5:35 PM 65.3 °F - 36.9 °F 35% 30.43 in 10.0 mi ENE 9.2 mph - N/A   Clear
5:55 PM 65.3 °F - 37.2 °F 35% 30.43 in 10.0 mi ENE 8.1 mph - N/A   Clear
6:15 PM 65.7 °F - 37.2 °F 35% 30.43 in 10.0 mi East 8.1 mph - N/A   Clear
6:35 PM 64.8 °F - 36.7 °F 35% 30.42 in 10.0 mi ENE 6.9 mph - N/A   Clear
6:55 PM 63.7 °F - 36.5 °F 36% 30.41 in 10.0 mi ENE 8.1 mph - N/A   Clear
7:15 PM 62.6 °F - 38.7 °F 41% 30.41 in 10.0 mi ENE 8.1 mph - N/A   Clear
7:35 PM 61.5 °F - 39.4 °F 44% 30.42 in 10.0 mi ENE 4.6 mph - N/A   Clear
7:55 PM 60.1 °F - 40.3 °F 48% 30.42 in 10.0 mi ENE 4.6 mph - N/A   Clear
8:15 PM 56.7 °F - 42.1 °F 58% 30.44 in 10.0 mi Calm Calm - N/A   Clear
8:35 PM 54.7 °F - 43.5 °F 66% 30.44 in 10.0 mi Calm Calm - N/A   Clear
8:55 PM 53.8 °F - 43.3 °F 68% 30.44 in 10.0 mi Calm Calm - N/A   Clear
9:15 PM 52.7 °F - 43.9 °F 72% 30.44 in 10.0 mi NNE 3.5 mph - N/A   Clear
9:35 PM 54.1 °F - 43.2 °F 66% 30.43 in 10.0 mi NNE 3.5 mph - N/A   Clear
9:55 PM 54.3 °F - 42.8 °F 65% 30.44 in 10.0 mi NE 5.8 mph - N/A   Clear
10:15 PM 53.6 °F - 42.8 °F 67% 30.46 in 10.0 mi NE 8.1 mph - N/A   Clear
10:35 PM 53.1 °F - 43.0 °F 69% 30.46 in 10.0 mi NE 6.9 mph - N/A   Clear
10:55 PM 53.6 °F - 42.3 °F 65% 30.46 in 10.0 mi NE 9.2 mph - N/A   Clear
11:15 PM 52.5 °F - 42.1 °F 68% 30.46 in 10.0 mi ENE 8.1 mph - N/A   Clear
11:35 PM 52.2 °F - 41.5 °F 67% 30.46 in 10.0 mi NE 9.2 mph - N/A   Clear
11:55 PM 51.8 °F - 41.2 °F 67% 30.46 in 10.0 mi ENE 9.2 mph - N/A   Clear